sensor_id;sensor_type;location;lat;lon;timestamp;P1;durP1;ratioP1;P2;durP2;ratioP2
35644;SDS011;21764;52.042;6.830;2022-08-30T00:02:14;10.52;;;5.57;;
35644;SDS011;21764;52.042;6.830;2022-08-30T00:07:15;15.60;;;5.88;;
35644;SDS011;21764;52.042;6.830;2022-08-30T00:12:15;7.75;;;5.93;;
35644;SDS011;21764;52.042;6.830;2022-08-30T00:17:16;9.25;;;5.40;;
35644;SDS011;21764;52.042;6.830;2022-08-30T00:22:18;12.65;;;5.82;;
35644;SDS011;21764;52.042;6.830;2022-08-30T00:27:18;10.27;;;6.57;;
35644;SDS011;21764;52.042;6.830;2022-08-30T00:32:19;10.27;;;6.18;;
35644;SDS011;21764;52.042;6.830;2022-08-30T00:37:20;11.23;;;6.47;;
35644;SDS011;21764;52.042;6.830;2022-08-30T00:42:21;9.82;;;6.90;;
35644;SDS011;21764;52.042;6.830;2022-08-30T00:47:22;14.13;;;7.40;;
35644;SDS011;21764;52.042;6.830;2022-08-30T00:52:23;12.45;;;8.23;;
35644;SDS011;21764;52.042;6.830;2022-08-30T00:57:24;11.77;;;7.78;;
35644;SDS011;21764;52.042;6.830;2022-08-30T01:02:25;10.63;;;7.72;;
35644;SDS011;21764;52.042;6.830;2022-08-30T01:07:30;14.35;;;8.60;;
35644;SDS011;21764;52.042;6.830;2022-08-30T01:12:32;11.35;;;7.97;;
35644;SDS011;21764;52.042;6.830;2022-08-30T01:17:33;14.23;;;9.50;;
35644;SDS011;21764;52.042;6.830;2022-08-30T01:28:06;15.95;;;10.10;;
35644;SDS011;21764;52.042;6.830;2022-08-30T01:33:13;14.43;;;9.48;;
35644;SDS011;21764;52.042;6.830;2022-08-30T01:38:14;15.48;;;10.13;;
35644;SDS011;21764;52.042;6.830;2022-08-30T01:43:16;11.98;;;10.20;;
35644;SDS011;21764;52.042;6.830;2022-08-30T01:48:18;15.18;;;11.65;;
35644;SDS011;21764;52.042;6.830;2022-08-30T01:53:21;19.52;;;11.88;;
35644;SDS011;21764;52.042;6.830;2022-08-30T01:58:21;16.42;;;11.88;;
35644;SDS011;21764;52.042;6.830;2022-08-30T02:03:22;13.57;;;12.18;;
35644;SDS011;21764;52.042;6.830;2022-08-30T02:08:25;18.80;;;13.60;;
35644;SDS011;21764;52.042;6.830;2022-08-30T02:13:26;12.73;;;11.35;;
35644;SDS011;21764;52.042;6.830;2022-08-30T02:18:27;14.75;;;11.82;;
35644;SDS011;21764;52.042;6.830;2022-08-30T02:23:28;15.93;;;12.25;;
35644;SDS011;21764;52.042;6.830;2022-08-30T02:28:28;17.13;;;12.77;;
35644;SDS011;21764;52.042;6.830;2022-08-30T02:33:29;16.98;;;11.65;;
35644;SDS011;21764;52.042;6.830;2022-08-30T02:38:30;14.05;;;11.52;;
35644;SDS011;21764;52.042;6.830;2022-08-30T02:43:31;22.13;;;11.30;;
35644;SDS011;21764;52.042;6.830;2022-08-30T02:48:32;14.63;;;11.45;;
35644;SDS011;21764;52.042;6.830;2022-08-30T02:53:33;17.55;;;11.13;;
35644;SDS011;21764;52.042;6.830;2022-08-30T02:58:34;14.23;;;10.60;;
35644;SDS011;21764;52.042;6.830;2022-08-30T03:03:36;12.18;;;9.43;;
35644;SDS011;21764;52.042;6.830;2022-08-30T03:08:37;11.05;;;9.15;;
35644;SDS011;21764;52.042;6.830;2022-08-30T03:13:38;10.65;;;8.15;;
35644;SDS011;21764;52.042;6.830;2022-08-30T03:18:39;9.77;;;8.20;;
35644;SDS011;21764;52.042;6.830;2022-08-30T03:23:42;14.50;;;9.32;;
35644;SDS011;21764;52.042;6.830;2022-08-30T03:28:43;12.93;;;8.70;;
35644;SDS011;21764;52.042;6.830;2022-08-30T03:33:43;12.90;;;9.15;;
35644;SDS011;21764;52.042;6.830;2022-08-30T03:38:44;13.05;;;8.63;;
35644;SDS011;21764;52.042;6.830;2022-08-30T03:43:45;10.30;;;8.02;;
35644;SDS011;21764;52.042;6.830;2022-08-30T03:48:46;11.30;;;8.90;;
35644;SDS011;21764;52.042;6.830;2022-08-30T03:53:47;11.57;;;9.35;;
35644;SDS011;21764;52.042;6.830;2022-08-30T03:58:47;13.02;;;9.15;;
35644;SDS011;21764;52.042;6.830;2022-08-30T04:03:48;14.15;;;10.30;;
35644;SDS011;21764;52.042;6.830;2022-08-30T04:08:49;12.63;;;9.77;;
35644;SDS011;21764;52.042;6.830;2022-08-30T04:13:50;15.52;;;10.13;;
35644;SDS011;21764;52.042;6.830;2022-08-30T04:18:52;13.93;;;10.32;;
35644;SDS011;21764;52.042;6.830;2022-08-30T04:23:52;12.10;;;10.25;;
35644;SDS011;21764;52.042;6.830;2022-08-30T04:28:54;14.93;;;10.07;;
35644;SDS011;21764;52.042;6.830;2022-08-30T04:33:54;15.07;;;11.13;;
35644;SDS011;21764;52.042;6.830;2022-08-30T04:38:55;13.63;;;9.85;;
35644;SDS011;21764;52.042;6.830;2022-08-30T04:43:56;13.77;;;10.35;;
35644;SDS011;21764;52.042;6.830;2022-08-30T04:48:57;12.75;;;10.38;;
35644;SDS011;21764;52.042;6.830;2022-08-30T04:53:57;14.90;;;9.93;;
35644;SDS011;21764;52.042;6.830;2022-08-30T04:58:58;13.20;;;9.18;;
35644;SDS011;21764;52.042;6.830;2022-08-30T05:03:59;14.10;;;8.77;;
35644;SDS011;21764;52.042;6.830;2022-08-30T05:08:59;10.02;;;7.53;;
35644;SDS011;21764;52.042;6.830;2022-08-30T05:14:00;7.85;;;5.68;;
35644;SDS011;21764;52.042;6.830;2022-08-30T05:19:01;10.05;;;6.10;;
35644;SDS011;21764;52.042;6.830;2022-08-30T05:24:02;7.40;;;5.20;;
35644;SDS011;21764;52.042;6.830;2022-08-30T05:29:02;6.47;;;4.75;;
35644;SDS011;21764;52.042;6.830;2022-08-30T05:34:03;10.10;;;4.97;;
35644;SDS011;21764;52.042;6.830;2022-08-30T05:39:05;7.30;;;3.95;;
35644;SDS011;21764;52.042;6.830;2022-08-30T05:44:08;8.43;;;4.15;;
35644;SDS011;21764;52.042;6.830;2022-08-30T05:49:09;5.18;;;3.97;;
35644;SDS011;21764;52.042;6.830;2022-08-30T05:54:11;9.77;;;4.10;;
35644;SDS011;21764;52.042;6.830;2022-08-30T05:59:13;12.60;;;3.17;;
35644;SDS011;21764;52.042;6.830;2022-08-30T06:04:15;7.03;;;3.60;;
35644;SDS011;21764;52.042;6.830;2022-08-30T06:09:16;5.53;;;3.35;;
35644;SDS011;21764;52.042;6.830;2022-08-30T06:14:17;6.75;;;2.85;;
35644;SDS011;21764;52.042;6.830;2022-08-30T06:19:18;17.98;;;2.70;;
35644;SDS011;21764;52.042;6.830;2022-08-30T06:24:19;11.20;;;2.63;;
35644;SDS011;21764;52.042;6.830;2022-08-30T06:29:20;10.05;;;2.80;;
35644;SDS011;21764;52.042;6.830;2022-08-30T06:34:22;6.07;;;2.35;;
35644;SDS011;21764;52.042;6.830;2022-08-30T06:39:22;6.88;;;2.67;;
35644;SDS011;21764;52.042;6.830;2022-08-30T06:44:23;8.65;;;2.20;;
35644;SDS011;21764;52.042;6.830;2022-08-30T06:49:24;7.47;;;1.95;;
35644;SDS011;21764;52.042;6.830;2022-08-30T06:54:24;7.35;;;2.50;;
35644;SDS011;21764;52.042;6.830;2022-08-30T06:59:25;7.07;;;2.10;;
35644;SDS011;21764;52.042;6.830;2022-08-30T07:04:26;3.95;;;1.90;;
35644;SDS011;21764;52.042;6.830;2022-08-30T07:09:27;8.18;;;1.98;;
35644;SDS011;21764;52.042;6.830;2022-08-30T07:14:27;5.38;;;2.20;;
35644;SDS011;21764;52.042;6.830;2022-08-30T07:19:28;6.57;;;1.83;;
35644;SDS011;21764;52.042;6.830;2022-08-30T07:24:29;6.60;;;1.98;;
35644;SDS011;21764;52.042;6.830;2022-08-30T07:29:29;11.60;;;2.13;;
35644;SDS011;21764;52.042;6.830;2022-08-30T07:34:30;7.18;;;2.00;;
35644;SDS011;21764;52.042;6.830;2022-08-30T07:39:31;6.20;;;1.70;;
35644;SDS011;21764;52.042;6.830;2022-08-30T07:44:31;6.85;;;1.70;;
35644;SDS011;21764;52.042;6.830;2022-08-30T07:49:32;3.30;;;1.58;;
35644;SDS011;21764;52.042;6.830;2022-08-30T07:54:33;7.35;;;1.48;;
35644;SDS011;21764;52.042;6.830;2022-08-30T07:59:34;5.55;;;1.70;;
35644;SDS011;21764;52.042;6.830;2022-08-30T08:04:34;2.83;;;1.40;;
35644;SDS011;21764;52.042;6.830;2022-08-30T08:09:38;12.90;;;1.77;;
35644;SDS011;21764;52.042;6.830;2022-08-30T08:14:38;15.27;;;1.80;;
35644;SDS011;21764;52.042;6.830;2022-08-30T08:19:40;2.95;;;1.35;;
35644;SDS011;21764;52.042;6.830;2022-08-30T08:24:41;4.43;;;1.90;;
35644;SDS011;21764;52.042;6.830;2022-08-30T08:29:41;4.93;;;1.50;;
35644;SDS011;21764;52.042;6.830;2022-08-30T08:34:42;5.32;;;1.30;;
35644;SDS011;21764;52.042;6.830;2022-08-30T08:39:43;4.22;;;1.52;;
35644;SDS011;21764;52.042;6.830;2022-08-30T08:44:49;2.63;;;1.65;;
35644;SDS011;21764;52.042;6.830;2022-08-30T08:50:00;14.23;;;2.13;;
35644;SDS011;21764;52.042;6.830;2022-08-30T08:55:10;3.58;;;1.40;;
35644;SDS011;21764;52.042;6.830;2022-08-30T09:00:13;10.77;;;1.50;;
35644;SDS011;21764;52.042;6.830;2022-08-30T09:05:18;8.60;;;1.80;;
35644;SDS011;21764;52.042;6.830;2022-08-30T09:10:24;3.22;;;1.50;;
35644;SDS011;21764;52.042;6.830;2022-08-30T09:15:27;7.72;;;1.95;;
35644;SDS011;21764;52.042;6.830;2022-08-30T09:20:32;7.03;;;2.00;;
35644;SDS011;21764;52.042;6.830;2022-08-30T09:25:35;35.35;;;2.85;;
35644;SDS011;21764;52.042;6.830;2022-08-30T09:30:35;5.50;;;1.35;;
35644;SDS011;21764;52.042;6.830;2022-08-30T09:35:38;8.20;;;2.00;;
35644;SDS011;21764;52.042;6.830;2022-08-30T09:45:48;17.85;;;2.28;;
35644;SDS011;21764;52.042;6.830;2022-08-30T09:51:13;14.27;;;1.92;;
35644;SDS011;21764;52.042;6.830;2022-08-30T10:11:44;2.88;;;1.48;;
35644;SDS011;21764;52.042;6.830;2022-08-30T10:22:25;3.88;;;1.65;;
35644;SDS011;21764;52.042;6.830;2022-08-30T10:27:43;6.35;;;1.88;;
35644;SDS011;21764;52.042;6.830;2022-08-30T10:33:05;4.53;;;1.70;;
35644;SDS011;21764;52.042;6.830;2022-08-30T10:38:14;4.28;;;1.60;;
35644;SDS011;21764;52.042;6.830;2022-08-30T10:43:23;6.00;;;1.65;;
35644;SDS011;21764;52.042;6.830;2022-08-30T10:48:30;2.55;;;1.30;;
35644;SDS011;21764;52.042;6.830;2022-08-30T10:53:41;6.78;;;1.40;;
35644;SDS011;21764;52.042;6.830;2022-08-30T10:58:45;5.55;;;1.65;;
35644;SDS011;21764;52.042;6.830;2022-08-30T11:14:11;3.08;;;1.60;;
35644;SDS011;21764;52.042;6.830;2022-08-30T11:19:23;3.17;;;1.17;;
35644;SDS011;21764;52.042;6.830;2022-08-30T11:35:36;6.28;;;1.52;;
35644;SDS011;21764;52.042;6.830;2022-08-30T11:40:50;10.15;;;1.48;;
35644;SDS011;21764;52.042;6.830;2022-08-30T12:01:58;13.82;;;2.20;;
35644;SDS011;21764;52.042;6.830;2022-08-30T12:07:01;2.92;;;1.55;;
35644;SDS011;21764;52.042;6.830;2022-08-30T12:12:08;5.80;;;1.55;;
35644;SDS011;21764;52.042;6.830;2022-08-30T12:17:25;9.05;;;1.58;;
35644;SDS011;21764;52.042;6.830;2022-08-30T12:22:45;5.82;;;1.55;;
35644;SDS011;21764;52.042;6.830;2022-08-30T12:27:45;3.38;;;1.52;;
35644;SDS011;21764;52.042;6.830;2022-08-30T12:32:46;4.47;;;1.60;;
35644;SDS011;21764;52.042;6.830;2022-08-30T12:37:58;8.27;;;1.48;;
35644;SDS011;21764;52.042;6.830;2022-08-30T12:43:03;7.10;;;1.60;;
35644;SDS011;21764;52.042;6.830;2022-08-30T12:53:12;6.45;;;1.60;;
35644;SDS011;21764;52.042;6.830;2022-08-30T12:58:33;3.75;;;1.88;;
35644;SDS011;21764;52.042;6.830;2022-08-30T13:03:40;7.75;;;1.73;;
35644;SDS011;21764;52.042;6.830;2022-08-30T13:13:49;3.42;;;1.83;;
35644;SDS011;21764;52.042;6.830;2022-08-30T13:18:54;5.55;;;1.60;;
35644;SDS011;21764;52.042;6.830;2022-08-30T13:24:15;6.25;;;1.77;;
35644;SDS011;21764;52.042;6.830;2022-08-30T13:29:18;5.35;;;1.50;;
35644;SDS011;21764;52.042;6.830;2022-08-30T13:34:26;4.25;;;1.42;;
35644;SDS011;21764;52.042;6.830;2022-08-30T13:39:32;7.00;;;1.70;;
35644;SDS011;21764;52.042;6.830;2022-08-30T13:44:33;5.32;;;2.38;;
35644;SDS011;21764;52.042;6.830;2022-08-30T13:49:34;5.43;;;1.40;;
35644;SDS011;21764;52.042;6.830;2022-08-30T13:54:36;4.57;;;1.42;;
35644;SDS011;21764;52.042;6.830;2022-08-30T13:59:37;4.97;;;1.50;;
35644;SDS011;21764;52.042;6.830;2022-08-30T14:04:37;3.70;;;1.30;;
35644;SDS011;21764;52.042;6.830;2022-08-30T14:09:38;3.35;;;1.65;;
35644;SDS011;21764;52.042;6.830;2022-08-30T14:14:39;8.13;;;1.55;;
35644;SDS011;21764;52.042;6.830;2022-08-30T14:19:39;6.97;;;1.60;;
35644;SDS011;21764;52.042;6.830;2022-08-30T14:24:40;4.43;;;1.48;;
35644;SDS011;21764;52.042;6.830;2022-08-30T14:29:41;6.90;;;1.70;;
35644;SDS011;21764;52.042;6.830;2022-08-30T14:34:41;4.70;;;1.60;;
35644;SDS011;21764;52.042;6.830;2022-08-30T14:39:42;3.17;;;1.55;;
35644;SDS011;21764;52.042;6.830;2022-08-30T14:44:43;4.78;;;1.20;;
35644;SDS011;21764;52.042;6.830;2022-08-30T14:49:43;4.88;;;1.80;;
35644;SDS011;21764;52.042;6.830;2022-08-30T14:54:44;4.32;;;2.03;;
35644;SDS011;21764;52.042;6.830;2022-08-30T14:59:45;2.70;;;1.63;;
35644;SDS011;21764;52.042;6.830;2022-08-30T15:04:46;7.10;;;1.58;;
35644;SDS011;21764;52.042;6.830;2022-08-30T15:09:46;6.72;;;1.98;;
35644;SDS011;21764;52.042;6.830;2022-08-30T15:14:47;4.95;;;1.90;;
35644;SDS011;21764;52.042;6.830;2022-08-30T15:19:48;5.35;;;1.58;;
35644;SDS011;21764;52.042;6.830;2022-08-30T15:24:48;4.28;;;1.60;;
35644;SDS011;21764;52.042;6.830;2022-08-30T15:29:49;3.53;;;1.70;;
35644;SDS011;21764;52.042;6.830;2022-08-30T15:34:50;5.80;;;1.55;;
35644;SDS011;21764;52.042;6.830;2022-08-30T15:39:50;4.97;;;1.85;;
35644;SDS011;21764;52.042;6.830;2022-08-30T15:44:52;4.38;;;1.42;;
35644;SDS011;21764;52.042;6.830;2022-08-30T15:49:58;4.60;;;1.80;;
35644;SDS011;21764;52.042;6.830;2022-08-30T15:55:04;4.50;;;1.52;;
35644;SDS011;21764;52.042;6.830;2022-08-30T16:00:06;7.28;;;1.77;;
35644;SDS011;21764;52.042;6.830;2022-08-30T16:05:10;6.93;;;1.60;;
35644;SDS011;21764;52.042;6.830;2022-08-30T16:10:12;3.90;;;1.52;;
35644;SDS011;21764;52.042;6.830;2022-08-30T16:15:13;5.35;;;1.92;;
35644;SDS011;21764;52.042;6.830;2022-08-30T16:20:17;5.60;;;1.40;;
35644;SDS011;21764;52.042;6.830;2022-08-30T16:25:21;6.75;;;1.80;;
35644;SDS011;21764;52.042;6.830;2022-08-30T16:30:22;5.47;;;1.30;;
35644;SDS011;21764;52.042;6.830;2022-08-30T16:35:25;4.65;;;1.40;;
35644;SDS011;21764;52.042;6.830;2022-08-30T16:40:26;4.60;;;1.70;;
35644;SDS011;21764;52.042;6.830;2022-08-30T16:45:27;8.68;;;1.70;;
35644;SDS011;21764;52.042;6.830;2022-08-30T16:50:30;4.70;;;1.48;;
35644;SDS011;21764;52.042;6.830;2022-08-30T16:55:34;4.38;;;1.73;;
35644;SDS011;21764;52.042;6.830;2022-08-30T17:00:38;8.70;;;1.50;;
35644;SDS011;21764;52.042;6.830;2022-08-30T17:05:39;9.90;;;1.38;;
35644;SDS011;21764;52.042;6.830;2022-08-30T17:10:40;4.68;;;1.48;;
35644;SDS011;21764;52.042;6.830;2022-08-30T17:15:42;4.85;;;1.50;;
35644;SDS011;21764;52.042;6.830;2022-08-30T17:20:44;5.32;;;1.63;;
35644;SDS011;21764;52.042;6.830;2022-08-30T17:25:46;5.15;;;1.38;;
35644;SDS011;21764;52.042;6.830;2022-08-30T17:30:46;5.35;;;1.60;;
35644;SDS011;21764;52.042;6.830;2022-08-30T17:35:47;15.63;;;1.70;;
35644;SDS011;21764;52.042;6.830;2022-08-30T17:40:48;4.57;;;1.45;;
35644;SDS011;21764;52.042;6.830;2022-08-30T17:45:48;7.43;;;1.60;;
35644;SDS011;21764;52.042;6.830;2022-08-30T17:50:53;8.45;;;1.52;;
35644;SDS011;21764;52.042;6.830;2022-08-30T17:55:55;9.13;;;1.63;;
35644;SDS011;21764;52.042;6.830;2022-08-30T18:06:07;5.93;;;1.80;;
35644;SDS011;21764;52.042;6.830;2022-08-30T18:11:08;8.18;;;1.50;;
35644;SDS011;21764;52.042;6.830;2022-08-30T18:16:09;3.10;;;1.75;;
35644;SDS011;21764;52.042;6.830;2022-08-30T18:21:13;3.75;;;1.40;;
35644;SDS011;21764;52.042;6.830;2022-08-30T18:26:24;17.13;;;2.15;;
35644;SDS011;21764;52.042;6.830;2022-08-30T18:31:26;12.55;;;1.65;;
35644;SDS011;21764;52.042;6.830;2022-08-30T18:36:27;12.68;;;1.83;;
35644;SDS011;21764;52.042;6.830;2022-08-30T18:41:28;3.67;;;1.55;;
35644;SDS011;21764;52.042;6.830;2022-08-30T18:46:29;6.57;;;1.50;;
35644;SDS011;21764;52.042;6.830;2022-08-30T18:51:29;3.15;;;1.25;;
35644;SDS011;21764;52.042;6.830;2022-08-30T18:56:30;8.48;;;1.65;;
35644;SDS011;21764;52.042;6.830;2022-08-30T19:01:31;12.82;;;1.70;;
35644;SDS011;21764;52.042;6.830;2022-08-30T19:06:31;8.25;;;2.00;;
35644;SDS011;21764;52.042;6.830;2022-08-30T19:11:32;3.47;;;1.40;;
35644;SDS011;21764;52.042;6.830;2022-08-30T19:16:35;3.83;;;1.40;;
35644;SDS011;21764;52.042;6.830;2022-08-30T19:21:37;7.78;;;1.70;;
35644;SDS011;21764;52.042;6.830;2022-08-30T19:26:38;3.78;;;1.40;;
35644;SDS011;21764;52.042;6.830;2022-08-30T19:31:44;7.53;;;1.58;;
35644;SDS011;21764;52.042;6.830;2022-08-30T19:36:45;10.35;;;1.98;;
35644;SDS011;21764;52.042;6.830;2022-08-30T19:41:49;3.60;;;1.60;;
35644;SDS011;21764;52.042;6.830;2022-08-30T19:46:50;6.53;;;1.80;;
35644;SDS011;21764;52.042;6.830;2022-08-30T19:51:51;5.03;;;1.67;;
35644;SDS011;21764;52.042;6.830;2022-08-30T19:56:52;5.97;;;1.90;;
35644;SDS011;21764;52.042;6.830;2022-08-30T20:01:53;9.40;;;2.50;;
35644;SDS011;21764;52.042;6.830;2022-08-30T20:06:53;9.20;;;1.88;;
35644;SDS011;21764;52.042;6.830;2022-08-30T20:11:54;8.02;;;1.92;;
35644;SDS011;21764;52.042;6.830;2022-08-30T20:16:55;6.78;;;1.80;;
35644;SDS011;21764;52.042;6.830;2022-08-30T20:21:56;5.45;;;1.73;;
35644;SDS011;21764;52.042;6.830;2022-08-30T20:27:00;6.15;;;2.10;;
35644;SDS011;21764;52.042;6.830;2022-08-30T20:32:02;7.63;;;1.88;;
35644;SDS011;21764;52.042;6.830;2022-08-30T20:37:03;9.40;;;1.90;;
35644;SDS011;21764;52.042;6.830;2022-08-30T20:42:08;10.32;;;2.13;;
35644;SDS011;21764;52.042;6.830;2022-08-30T20:47:09;4.20;;;1.50;;
35644;SDS011;21764;52.042;6.830;2022-08-30T20:52:10;8.13;;;1.75;;
35644;SDS011;21764;52.042;6.830;2022-08-30T20:57:11;3.55;;;2.00;;
35644;SDS011;21764;52.042;6.830;2022-08-30T21:02:12;3.28;;;1.60;;
35644;SDS011;21764;52.042;6.830;2022-08-30T21:07:12;2.40;;;1.73;;
35644;SDS011;21764;52.042;6.830;2022-08-30T21:12:14;4.57;;;2.00;;
35644;SDS011;21764;52.042;6.830;2022-08-30T21:17:15;3.38;;;1.80;;
35644;SDS011;21764;52.042;6.830;2022-08-30T21:22:16;8.05;;;2.00;;
35644;SDS011;21764;52.042;6.830;2022-08-30T21:27:17;3.72;;;1.73;;
35644;SDS011;21764;52.042;6.830;2022-08-30T21:32:18;3.20;;;1.63;;
35644;SDS011;21764;52.042;6.830;2022-08-30T21:37:19;4.40;;;1.60;;
35644;SDS011;21764;52.042;6.830;2022-08-30T21:42:21;3.67;;;1.80;;
35644;SDS011;21764;52.042;6.830;2022-08-30T21:47:22;4.55;;;2.05;;
35644;SDS011;21764;52.042;6.830;2022-08-30T21:52:23;5.05;;;2.10;;
35644;SDS011;21764;52.042;6.830;2022-08-30T21:57:24;3.53;;;1.83;;
35644;SDS011;21764;52.042;6.830;2022-08-30T22:02:25;4.75;;;1.77;;
35644;SDS011;21764;52.042;6.830;2022-08-30T22:07:28;4.97;;;1.90;;
35644;SDS011;21764;52.042;6.830;2022-08-30T22:12:28;5.88;;;1.88;;
35644;SDS011;21764;52.042;6.830;2022-08-30T22:17:29;6.43;;;1.67;;
35644;SDS011;21764;52.042;6.830;2022-08-30T22:22:30;6.32;;;2.05;;
35644;SDS011;21764;52.042;6.830;2022-08-30T22:27:30;7.03;;;2.10;;
35644;SDS011;21764;52.042;6.830;2022-08-30T22:32:32;4.00;;;1.95;;
35644;SDS011;21764;52.042;6.830;2022-08-30T22:37:33;3.55;;;1.85;;
35644;SDS011;21764;52.042;6.830;2022-08-30T22:42:34;7.68;;;2.17;;
35644;SDS011;21764;52.042;6.830;2022-08-30T22:47:36;3.53;;;1.70;;
35644;SDS011;21764;52.042;6.830;2022-08-30T22:52:37;3.00;;;1.55;;
35644;SDS011;21764;52.042;6.830;2022-08-30T22:57:38;3.58;;;1.65;;
35644;SDS011;21764;52.042;6.830;2022-08-30T23:02:40;6.32;;;1.83;;
35644;SDS011;21764;52.042;6.830;2022-08-30T23:07:41;2.50;;;1.70;;
35644;SDS011;21764;52.042;6.830;2022-08-30T23:12:42;5.82;;;1.80;;
35644;SDS011;21764;52.042;6.830;2022-08-30T23:17:43;3.47;;;2.00;;
35644;SDS011;21764;52.042;6.830;2022-08-30T23:22:44;2.47;;;1.60;;
35644;SDS011;21764;52.042;6.830;2022-08-30T23:27:44;5.95;;;1.90;;
35644;SDS011;21764;52.042;6.830;2022-08-30T23:33:04;4.93;;;1.95;;
35644;SDS011;21764;52.042;6.830;2022-08-30T23:38:23;2.50;;;1.58;;
35644;SDS011;21764;52.042;6.830;2022-08-30T23:43:42;5.32;;;1.65;;
35644;SDS011;21764;52.042;6.830;2022-08-30T23:49:01;3.30;;;1.88;;
35644;SDS011;21764;52.042;6.830;2022-08-30T23:54:21;3.80;;;1.80;;
35644;SDS011;21764;52.042;6.830;2022-08-30T23:59:40;2.97;;;1.77;;
